Aurora Center, South Dakota
Current Conditions -  °F | °C
As of 1:53 AM on Sunday 23 Nov 2014 (Local Time) from KMHE Reporting Station
Broken Clouds Broken Clouds  
Wind Chill: 39°   Ceiling: 10000
Heat Index: 39°   Visibility: 10mi
Dew Point: 33°   Wind: 3mph
Humidity: 79%   Direction: 140°SE
Pressure: 29.4"   Gusts: NA
Location:  43.5853°N, 98.5581°W
Report Text: KMHE 230753Z AUTO 14003KT 10SM BKN100 BKN120 04/01 A2940 RMK AO2 SLP963 T00390006 $
Loading
Personal Weather Stations






























Interactive Weather Map New forecast layout! Learn more

10-Day Weather Forecast

Advertisements
Track Severe Weather on mobile